Lake Jacksonville, Texas
Current Conditions -  °F | °C
As of 12:15 AM on Saturday 01 Nov 2014 (Local Time) from KJSO Reporting Station
Clear Clear  
Wind Chill: 48°   Ceiling: Unl
Heat Index: 49°   Visibility: 10mi
Dew Point: 41°   Wind: 5mph
Humidity: 74%   Direction: 10°N
Pressure: 30.33"   Gusts: NA
Location:  31.9649°N, 95.3036°W
Report Text: KJSO 010515Z AUTO 01004KT 10SM CLR 09/05 A3033 RMK AO2 T00960051
Loading
Personal Weather Stations






























Interactive Weather Map
Tropical Storm Tracking
New forecast layout! Learn more

10-Day Weather Forecast

Advertisements
Track Severe Weather on mobile